Time;durP1;ratioP1;P1;durP2;ratioP2;P2;SDS_P1;SDS_P2;PMS_P1;PMS_P2;Temp;Humidity;BMP_temperature;BMP_pressure;BME280_temperature;BME280_humidity;BME280_pressure;Samples;Min_cycle;Max_cycle;Signal;HPM_P1;HPM_P2
2022/05/16 00:00:51;;;;;;;6.05;4.82;;;18.70;99.90;;;;;;5030305;28;20146;-84
2022/05/16 00:03:21;;;;;;;10.13;5.20;;;18.60;99.90;;;;;;5040242;28;20056;-83
2022/05/16 00:08:45;;;;;;;6.15;5.15;;;18.50;99.90;;;;;;5030903;28;20508;-84
2022/05/16 00:11:19;;;;;;;9.50;5.28;;;18.40;99.90;;;;;;5039624;28;20025;-83
2022/05/16 00:14:02;;;;;;;9.75;5.38;;;18.30;99.90;;;;;;5036967;28;20013;-83
2022/05/16 00:16:29;;;;;;;5.35;4.88;;;18.30;99.90;;;;;;5041028;28;20135;-83
2022/05/16 00:18:54;;;;;;;7.30;4.75;;;18.30;99.90;;;;;;5040046;28;20057;-82
2022/05/16 00:21:23;;;;;;;8.95;5.70;;;18.20;99.90;;;;;;5037690;28;20108;-83
2022/05/16 00:24:24;;;;;;;6.97;5.32;;;18.20;99.90;;;;;;5037815;28;20017;-83
2022/05/16 00:26:52;;;;;;;7.13;5.03;;;18.10;99.90;;;;;;5021244;28;20033;-82
2022/05/16 00:29:24;;;;;;;9.32;4.93;;;18.10;99.90;;;;;;5036483;28;20033;-82
2022/05/16 00:32:00;;;;;;;6.68;5.22;;;18.20;99.90;;;;;;5038096;28;20029;-83
2022/05/16 00:34:37;;;;;;;6.90;5.35;;;18.10;99.90;;;;;;5026322;28;20033;-83
2022/05/16 00:37:03;;;;;;;6.25;5.43;;;18.10;99.90;;;;;;5023510;28;20090;-86
2022/05/16 00:40:02;;;;;;;6.63;5.38;;;18.00;99.90;;;;;;5037289;28;20558;-83
2022/05/16 00:42:22;;;;;;;8.50;5.18;;;18.00;99.90;;;;;;5038325;28;20128;-85
2022/05/16 00:44:47;;;;;;;10.73;5.38;;;17.90;99.90;;;;;;5043915;28;20129;-85
2022/05/16 00:47:13;;;;;;;6.25;5.60;;;17.90;99.90;;;;;;5039893;28;20504;-85
2022/05/16 00:49:48;;;;;;;6.18;5.07;;;17.90;99.90;;;;;;5043872;28;20103;-85
2022/05/16 00:52:37;;;;;;;13.32;5.60;;;17.80;99.90;;;;;;5038380;28;20037;-85
2022/05/16 00:55:08;;;;;;;9.57;5.10;;;17.80;99.90;;;;;;5033806;28;20036;-85
2022/05/16 00:57:43;;;;;;;7.53;4.68;;;17.80;99.90;;;;;;5041789;28;20079;-84
2022/05/16 01:00:17;;;;;;;6.40;4.95;;;17.80;99.90;;;;;;5034559;28;20384;-84
2022/05/16 01:05:34;;;;;;;6.80;5.30;;;17.70;99.90;;;;;;5042424;28;20117;-84
2022/05/16 01:08:05;;;;;;;5.43;4.95;;;17.70;99.90;;;;;;5041880;28;20091;-85
2022/05/16 01:10:32;;;;;;;7.72;5.53;;;17.70;99.90;;;;;;5042196;28;20543;-84
2022/05/16 01:12:58;;;;;;;5.72;5.18;;;17.60;99.90;;;;;;5038429;28;20074;-84
2022/05/16 01:15:23;;;;;;;5.68;5.15;;;17.60;99.90;;;;;;5020433;28;20056;-85
2022/05/16 01:17:50;;;;;;;9.90;5.45;;;17.60;99.90;;;;;;5040682;28;20029;-83
2022/05/16 01:20:15;;;;;;;6.25;5.30;;;17.60;99.90;;;;;;5037552;28;20017;-83
2022/05/16 01:22:45;;;;;;;6.22;4.90;;;17.60;99.90;;;;;;5037168;28;20029;-84
2022/05/16 01:25:27;;;;;;;5.30;4.78;;;17.60;99.90;;;;;;5032609;28;20032;-84
2022/05/16 01:27:58;;;;;;;6.43;5.03;;;17.70;99.90;;;;;;5022256;28;20553;-86
2022/05/16 01:30:39;;;;;;;10.23;5.22;;;17.80;99.90;;;;;;5036341;28;20104;-86
2022/05/16 01:33:05;;;;;;;8.50;5.25;;;17.80;99.90;;;;;;5041709;28;20108;-86
2022/05/16 01:35:32;;;;;;;6.50;5.72;;;17.80;99.90;;;;;;5039464;28;20163;-86
2022/05/16 01:38:19;;;;;;;7.95;5.20;;;17.70;99.90;;;;;;5020214;28;20029;-85
2022/05/16 01:40:57;;;;;;;5.88;5.28;;;17.70;99.90;;;;;;5041622;28;20029;-86
2022/05/16 01:43:28;;;;;;;6.60;4.88;;;17.60;99.90;;;;;;5040468;28;20031;-85
2022/05/16 01:45:54;;;;;;;6.05;5.45;;;17.60;99.90;;;;;;5041406;28;20163;-85
2022/05/16 01:48:21;;;;;;;7.85;5.28;;;17.60;99.90;;;;;;5040846;28;20122;-84
2022/05/16 01:50:48;;;;;;;8.95;5.63;;;17.50;99.90;;;;;;5022576;28;20029;-84
2022/05/16 01:53:15;;;;;;;10.65;6.10;;;17.50;99.90;;;;;;5043080;28;20391;-85
2022/05/16 01:55:41;;;;;;;5.97;5.40;;;17.50;99.90;;;;;;5013581;28;20045;-84
2022/05/16 01:58:08;;;;;;;5.60;5.10;;;17.50;99.90;;;;;;5044753;28;20034;-84
2022/05/16 02:00:34;;;;;;;6.95;5.40;;;17.50;99.90;;;;;;5038755;28;20044;-84
2022/05/16 02:03:01;;;;;;;6.10;5.32;;;17.50;99.90;;;;;;5042443;28;20458;-85
2022/05/16 02:05:28;;;;;;;9.07;5.45;;;17.50;99.90;;;;;;5049323;28;20017;-85
2022/05/16 02:07:54;;;;;;;8.55;5.38;;;17.50;99.90;;;;;;5042967;28;20037;-85
2022/05/16 02:10:23;;;;;;;7.43;4.97;;;17.60;99.90;;;;;;5046423;28;20014;-85
2022/05/16 02:12:49;;;;;;;5.50;4.72;;;17.60;99.90;;;;;;5040753;28;20028;-85
2022/05/16 02:15:20;;;;;;;6.38;4.90;;;17.60;99.90;;;;;;5046317;28;20353;-84
2022/05/16 02:17:45;;;;;;;6.25;4.50;;;17.60;99.90;;;;;;5024166;28;20036;-84
2022/05/16 02:20:12;;;;;;;6.65;5.20;;;17.60;99.90;;;;;;5024241;28;20384;-84
2022/05/16 02:25:26;;;;;;;6.72;5.10;;;17.50;99.90;;;;;;5036644;28;20044;-85
2022/05/16 02:27:53;;;;;;;9.60;5.22;;;17.50;99.90;;;;;;5042702;28;20067;-85
2022/05/16 02:30:23;;;;;;;6.97;5.28;;;17.50;99.90;;;;;;5040336;28;20025;-85
2022/05/16 02:32:49;;;;;;;6.90;4.93;;;17.50;99.90;;;;;;5021628;28;20021;-86
2022/05/16 02:35:15;;;;;;;7.18;5.30;;;17.50;99.90;;;;;;5040137;28;20033;-85
2022/05/16 02:37:41;;;;;;;7.82;5.35;;;17.60;99.90;;;;;;5040101;28;20044;-85
2022/05/16 02:40:07;;;;;;;5.45;4.43;;;17.50;99.90;;;;;;5042018;28;20029;-85
2022/05/16 02:42:33;;;;;;;9.05;5.13;;;17.50;99.90;;;;;;5043487;28;20025;-85
2022/05/16 02:44:58;;;;;;;9.65;5.00;;;17.50;99.90;;;;;;5028486;28;20029;-86
2022/05/16 02:47:24;;;;;;;9.95;4.88;;;17.50;99.90;;;;;;5042129;28;20078;-86
2022/05/16 02:49:51;;;;;;;10.07;4.97;;;17.50;99.90;;;;;;5020344;28;20084;-86
2022/05/16 02:52:18;;;;;;;18.55;5.03;;;17.50;99.90;;;;;;5023749;28;20124;-86
2022/05/16 02:54:47;;;;;;;6.20;4.85;;;17.40;99.90;;;;;;5037855;28;20032;-85
2022/05/16 02:57:12;;;;;;;5.80;4.88;;;17.40;99.90;;;;;;5041226;28;20036;-87
2022/05/16 02:59:39;;;;;;;5.55;4.90;;;17.40;99.90;;;;;;5039808;28;20025;-85
2022/05/16 03:02:07;;;;;;;6.45;4.97;;;17.30;99.90;;;;;;5037777;28;20504;-86
2022/05/16 03:04:34;;;;;;;11.10;5.35;;;17.30;99.90;;;;;;5020138;28;20034;-86
2022/05/16 03:07:00;;;;;;;7.50;5.28;;;17.30;99.90;;;;;;5023107;28;20032;-85
2022/05/16 03:09:27;;;;;;;7.35;5.00;;;17.30;99.90;;;;;;5038940;28;20029;-85
2022/05/16 03:11:55;;;;;;;6.07;4.97;;;17.30;99.90;;;;;;5042242;28;20416;-85
2022/05/16 03:14:24;;;;;;;7.65;4.90;;;17.30;99.90;;;;;;5037130;28;20120;-86
2022/05/16 03:16:51;;;;;;;11.75;5.10;;;17.30;99.90;;;;;;5025047;28;20423;-86
2022/05/16 03:19:17;;;;;;;7.72;5.05;;;17.30;99.90;;;;;;5047103;28;20017;-85
2022/05/16 03:21:43;;;;;;;5.15;4.68;;;17.30;99.90;;;;;;5024680;28;20048;-84
2022/05/16 03:24:09;;;;;;;10.20;4.57;;;17.30;99.90;;;;;;5028164;28;20025;-85
2022/05/16 03:26:38;;;;;;;6.28;5.40;;;17.20;99.90;;;;;;5039787;28;20075;-86
2022/05/16 03:29:06;;;;;;;8.52;5.25;;;17.20;99.90;;;;;;5028955;28;20017;-86
2022/05/16 03:31:33;;;;;;;6.95;4.80;;;17.20;99.90;;;;;;5022120;28;20116;-86
2022/05/16 03:33:58;;;;;;;8.27;5.00;;;17.10;99.90;;;;;;5027019;28;20099;-86
2022/05/16 03:36:24;;;;;;;8.07;4.55;;;17.10;99.90;;;;;;5040406;28;20036;-86
2022/05/16 03:41:35;;;;;;;6.43;5.20;;;17.10;99.90;;;;;;5043865;28;20051;-86
2022/05/16 03:44:01;;;;;;;12.95;5.10;;;17.10;99.90;;;;;;5038776;28;20021;-86
2022/05/16 03:46:27;;;;;;;4.90;4.50;;;17.10;99.90;;;;;;5023286;28;20033;-86
2022/05/16 03:48:52;;;;;;;4.90;4.40;;;17.10;99.90;;;;;;5037603;28;20404;-86
2022/05/16 03:51:51;;;;;;;7.60;4.63;;;17.10;99.90;;;;;;5022794;28;20029;-86
2022/05/16 03:54:11;;;;;;;7.45;5.15;;;17.10;99.90;;;;;;5033480;28;20425;-89
2022/05/16 03:56:36;;;;;;;7.05;5.05;;;17.10;99.90;;;;;;5044443;28;20509;-86
2022/05/16 03:59:05;;;;;;;5.50;4.68;;;17.20;99.90;;;;;;5027489;28;20043;-86
2022/05/16 04:01:32;;;;;;;5.05;4.20;;;17.20;99.90;;;;;;5022002;28;20056;-87
2022/05/16 04:03:58;;;;;;;7.20;4.53;;;17.20;99.90;;;;;;5043692;28;20024;-87
2022/05/16 04:06:24;;;;;;;10.60;4.88;;;17.20;99.90;;;;;;5024182;28;20107;-84
2022/05/16 04:08:50;;;;;;;5.15;4.63;;;17.30;99.90;;;;;;5043233;28;20029;-87
2022/05/16 04:11:16;;;;;;;10.35;5.00;;;17.30;99.90;;;;;;5020154;28;20480;-86
2022/05/16 04:13:43;;;;;;;5.55;4.63;;;17.30;99.90;;;;;;5042881;28;20025;-86
2022/05/16 04:16:12;;;;;;;5.28;4.43;;;17.40;99.90;;;;;;5041077;28;20037;-87
2022/05/16 04:18:39;;;;;;;7.72;4.72;;;17.40;99.90;;;;;;5043278;28;20138;-87
2022/05/16 04:21:05;;;;;;;19.15;5.35;;;17.40;99.90;;;;;;5042714;28;20044;-86
2022/05/16 04:23:31;;;;;;;6.55;4.85;;;17.40;99.90;;;;;;5036790;28;20025;-87
2022/05/16 04:25:56;;;;;;;5.60;4.45;;;17.40;99.90;;;;;;5036176;28;20037;-87
2022/05/16 04:28:22;;;;;;;10.25;4.72;;;17.40;99.90;;;;;;5023375;28;20025;-86
2022/05/16 04:30:51;;;;;;;8.05;4.60;;;17.50;99.90;;;;;;5043265;28;20034;-86
2022/05/16 04:33:18;;;;;;;10.73;4.93;;;17.50;99.90;;;;;;5039075;28;20022;-88
2022/05/16 04:35:44;;;;;;;6.97;4.72;;;17.50;99.90;;;;;;5021206;28;20072;-87
2022/05/16 04:38:10;;;;;;;4.68;4.28;;;17.60;99.90;;;;;;5036786;28;20429;-87
2022/05/16 04:42:40;;;;;;;9.95;4.45;;;17.60;99.90;;;;;;5037193;28;20025;-86
2022/05/16 04:43:21;;;;;;;4.95;4.55;;;17.60;99.90;;;;;;5038207;28;20087;-86
2022/05/16 04:45:47;;;;;;;6.57;3.80;;;17.70;99.90;;;;;;5020083;28;20544;-86
2022/05/16 04:48:12;;;;;;;7.70;4.32;;;17.80;99.90;;;;;;5041071;28;20037;-87
2022/05/16 04:50:38;;;;;;;5.57;3.80;;;17.80;99.90;;;;;;5037482;28;20075;-86
2022/05/16 04:53:04;;;;;;;7.25;4.45;;;17.80;99.90;;;;;;5039765;28;20025;-86
2022/05/16 04:55:30;;;;;;;7.97;4.57;;;17.90;99.90;;;;;;5022446;28;20042;-87
2022/05/16 04:57:59;;;;;;;5.88;4.88;;;17.90;99.90;;;;;;5038608;28;20095;-87
2022/05/16 05:00:26;;;;;;;8.02;4.68;;;17.90;99.90;;;;;;5026350;28;20025;-87
2022/05/16 05:02:52;;;;;;;7.15;4.93;;;18.00;99.90;;;;;;5037102;28;20303;-87
2022/05/16 05:05:19;;;;;;;6.43;4.68;;;18.10;99.90;;;;;;5028277;28;20029;-87
2022/05/16 05:07:45;;;;;;;14.35;4.93;;;18.10;99.90;;;;;;5039514;28;20033;-86
2022/05/16 05:15:43;;;;;;;12.82;4.20;;;18.40;99.90;;;;;;5041923;28;20115;-87
2022/05/16 05:18:09;;;;;;;6.30;4.40;;;18.50;99.90;;;;;;5023584;28;20472;-86
2022/05/16 05:20:35;;;;;;;8.80;4.18;;;18.60;99.90;;;;;;5039223;28;20025;-86
2022/05/16 05:23:03;;;;;;;9.35;4.07;;;18.70;99.90;;;;;;5024016;28;20468;-86
2022/05/16 05:25:29;;;;;;;14.10;4.10;;;18.80;99.90;;;;;;5028178;28;20025;-85
2022/05/16 05:27:55;;;;;;;7.70;4.05;;;18.90;99.90;;;;;;5025469;28;20429;-85
2022/05/16 05:30:25;;;;;;;5.63;4.10;;;19.10;99.90;;;;;;5041899;28;20113;-86
2022/05/16 05:32:52;;;;;;;6.32;4.00;;;19.20;99.90;;;;;;5044212;28;20364;-86
2022/05/16 05:35:19;;;;;;;5.53;4.28;;;19.30;99.90;;;;;;5046910;28;20030;-86
2022/05/16 05:37:46;;;;;;;7.55;3.83;;;19.30;99.90;;;;;;5043583;28;20087;-86
2022/05/16 05:40:13;;;;;;;8.88;4.22;;;19.40;99.90;;;;;;5049494;28;20022;-89
2022/05/16 05:42:38;;;;;;;7.60;4.15;;;19.50;99.90;;;;;;5046744;28;20041;-89
2022/05/16 05:45:06;;;;;;;6.60;4.30;;;19.70;99.90;;;;;;5028513;28;20460;-91
2022/05/16 05:47:32;;;;;;;6.47;3.92;;;19.80;99.90;;;;;;5040651;28;20437;-92
2022/05/16 05:49:59;;;;;;;5.43;3.80;;;19.80;99.90;;;;;;5051010;28;20079;-93
2022/05/16 05:52:28;;;;;;;6.13;4.18;;;19.90;99.90;;;;;;5044511;28;20033;-92
2022/05/16 05:54:56;;;;;;;5.25;4.05;;;20.00;99.90;;;;;;5049036;28;20091;-94
2022/05/16 05:57:22;;;;;;;10.52;4.10;;;20.10;99.90;;;;;;5040723;28;20487;-93
2022/05/16 05:59:47;;;;;;;7.47;4.13;;;20.20;99.90;;;;;;5046193;28;20063;-92
2022/05/16 06:02:14;;;;;;;11.15;4.85;;;20.30;99.90;;;;;;5045187;28;20055;-93
2022/05/16 06:04:41;;;;;;;8.68;4.32;;;20.40;99.90;;;;;;5034431;28;20480;-90
2022/05/16 06:07:06;;;;;;;12.05;4.55;;;20.50;99.90;;;;;;5042273;28;20022;-90
2022/05/16 06:09:33;;;;;;;18.42;5.05;;;20.60;99.90;;;;;;5037603;28;20048;-91
2022/05/16 06:11:59;;;;;;;12.35;4.25;;;20.70;99.90;;;;;;5045727;28;20044;-91
2022/05/16 06:14:27;;;;;;;12.57;4.40;;;20.70;99.90;;;;;;5041117;28;20549;-92
2022/05/16 06:16:54;;;;;;;9.25;4.63;;;20.90;99.90;;;;;;5045128;28;20049;-91
2022/05/16 06:19:20;;;;;;;6.82;4.15;;;21.00;99.90;;;;;;5041092;28;20022;-92
2022/05/16 06:21:46;;;;;;;9.00;4.47;;;21.10;99.90;;;;;;5042751;28;20040;-91
2022/05/16 06:26:57;;;;;;;10.23;4.78;;;21.20;99.90;;;;;;5042922;28;20427;-91
2022/05/16 06:29:24;;;;;;;10.95;3.80;;;21.30;99.90;;;;;;5029164;28;20059;-90
2022/05/16 06:31:49;;;;;;;5.28;3.65;;;21.40;99.90;;;;;;5044398;28;20034;-91
2022/05/16 06:34:15;;;;;;;8.32;4.53;;;21.50;99.90;;;;;;5038979;28;20076;-89
2022/05/16 06:36:41;;;;;;;8.13;4.10;;;21.60;99.90;;;;;;5046006;28;20455;-86
2022/05/16 06:39:06;;;;;;;6.60;3.53;;;21.70;99.90;;;;;;5024214;28;20035;-89
2022/05/16 06:41:34;;;;;;;8.20;3.63;;;21.80;99.90;;;;;;5042909;28;20033;-93
2022/05/16 06:44:01;;;;;;;5.45;3.75;;;21.90;99.90;;;;;;5021338;28;20025;-92
2022/05/16 06:46:27;;;;;;;6.72;3.53;;;22.00;99.90;;;;;;5024136;28;20392;-92
2022/05/16 06:48:53;;;;;;;5.75;3.60;;;22.10;99.90;;;;;;5040261;28;20052;-91
2022/05/16 06:51:19;;;;;;;6.22;3.38;;;22.20;99.90;;;;;;5045658;28;20025;-92
2022/05/16 06:53:45;;;;;;;4.55;3.30;;;22.30;99.90;;;;;;5023184;28;20029;-93
2022/05/16 06:56:11;;;;;;;5.82;2.75;;;22.40;99.90;;;;;;5041509;28;20040;-93
2022/05/16 06:58:37;;;;;;;7.75;3.38;;;22.50;99.90;;;;;;5024555;28;20072;-92
2022/05/16 07:01:03;;;;;;;3.45;3.15;;;22.60;99.90;;;;;;5039257;28;20028;-92
2022/05/16 07:03:30;;;;;;;4.05;2.70;;;22.80;99.90;;;;;;5044634;28;20021;-93
2022/05/16 07:05:56;;;;;;;4.38;3.08;;;22.90;99.90;;;;;;5033938;28;20163;-93
2022/05/16 07:08:23;;;;;;;5.53;3.30;;;23.00;99.90;;;;;;5040017;28;20482;-92
2022/05/16 07:10:50;;;;;;;4.43;2.95;;;23.10;99.90;;;;;;5039333;28;20648;-91
2022/05/16 07:13:16;;;;;;;9.90;2.95;;;23.20;99.90;;;;;;5042488;28;20033;-89
2022/05/16 07:15:42;;;;;;;3.30;2.63;;;23.30;99.90;;;;;;5036358;28;20037;-91
2022/05/16 07:18:11;;;;;;;8.02;3.50;;;23.40;99.90;;;;;;5045882;28;20028;-90
2022/05/16 07:20:39;;;;;;;7.32;2.63;;;23.40;99.90;;;;;;5016372;28;20033;-91
2022/05/16 07:23:05;;;;;;;7.13;3.00;;;23.50;99.90;;;;;;5024113;28;20090;-91
2022/05/16 07:27:56;;;;;;;8.15;2.80;;;23.50;99.90;;;;;;5026457;28;20055;-88
2022/05/16 07:28:17;;;;;;;7.38;3.40;;;23.60;99.90;;;;;;5041723;28;20430;-88
2022/05/16 07:30:43;;;;;;;6.38;3.60;;;23.70;99.90;;;;;;5037966;28;20018;-92
2022/05/16 07:33:12;;;;;;;17.98;5.50;;;23.90;99.90;;;;;;5023795;28;20029;-86
2022/05/16 07:35:38;;;;;;;7.72;4.90;;;24.00;99.90;;;;;;5045481;28;20041;-88
2022/05/16 07:38:08;;;;;;;34.55;6.38;;;23.90;99.90;;;;;;5023052;28;20079;-86
2022/05/16 07:40:37;;;;;;;13.48;5.15;;;23.80;99.90;;;;;;5038644;28;20124;-87
2022/05/16 07:43:03;;;;;;;19.23;4.85;;;23.70;99.90;;;;;;5042630;28;20033;-87
2022/05/16 07:45:29;;;;;;;10.00;4.45;;;23.60;99.90;;;;;;5042988;28;20583;-88
2022/05/16 07:47:55;;;;;;;10.07;4.32;;;23.60;99.90;;;;;;5041428;28;20040;-84
2022/05/16 07:50:24;;;;;;;9.23;4.00;;;23.60;99.90;;;;;;5044423;28;20076;-86
2022/05/16 07:52:50;;;;;;;12.52;4.40;;;23.60;99.90;;;;;;5038891;28;20026;-86
2022/05/16 07:55:20;;;;;;;8.23;4.03;;;23.60;99.90;;;;;;5039437;28;20068;-86
2022/05/16 07:57:46;;;;;;;11.45;4.20;;;23.60;99.90;;;;;;5020663;28;20029;-87
2022/05/16 08:00:12;;;;;;;6.18;3.95;;;23.60;99.90;;;;;;5042249;28;20464;-85
2022/05/16 08:02:41;;;;;;;7.93;3.90;;;23.60;99.90;;;;;;5037930;28;20101;-85
2022/05/16 08:05:09;;;;;;;8.40;3.85;;;23.80;99.90;;;;;;5020113;28;20024;-87
2022/05/16 08:10:28;;;;;;;7.40;3.50;;;23.90;99.90;;;;;;5038782;28;20069;-87
2022/05/16 08:10:29;;;;;;;5.32;3.10;;;23.90;99.90;;;;;;5036964;28;20014;-84
2022/05/16 08:12:55;;;;;;;5.30;3.20;;;23.80;99.90;;;;;;5041349;28;20519;-87
2022/05/16 08:15:21;;;;;;;6.13;3.05;;;24.00;99.90;;;;;;5037465;28;20036;-86
2022/05/16 08:17:47;;;;;;;5.53;3.35;;;23.90;99.90;;;;;;5021410;28;20415;-86
2022/05/16 08:20:13;;;;;;;5.82;3.28;;;23.80;99.90;;;;;;5020582;28;20236;-86
2022/05/16 08:22:39;;;;;;;19.30;3.65;;;23.70;99.90;;;;;;5020089;28;20039;-87
2022/05/16 08:25:05;;;;;;;7.25;4.15;;;23.80;99.90;;;;;;5044524;28;20483;-86
2022/05/16 08:27:33;;;;;;;6.25;2.88;;;23.90;99.90;;;;;;5022753;28;20343;-90
2022/05/16 08:29:59;;;;;;;5.20;3.45;;;23.90;99.90;;;;;;5045110;28;20029;-88
2022/05/16 08:32:25;;;;;;;6.65;3.58;;;23.80;99.90;;;;;;5043934;28;20021;-89
2022/05/16 08:34:57;;;;;;;6.30;4.13;;;23.80;99.90;;;;;;5037065;28;20021;-89
2022/05/16 08:40:08;;;;;;;8.27;3.58;;;23.80;99.90;;;;;;5043000;28;20549;-90
2022/05/16 08:42:38;;;;;;;6.47;4.10;;;23.70;99.90;;;;;;5041109;28;20400;-85
2022/05/16 08:45:14;;;;;;;6.70;4.85;;;23.70;99.90;;;;;;5025725;28;20029;-86
2022/05/16 08:47:55;;;;;;;7.68;5.28;;;23.50;99.90;;;;;;5038056;28;20061;-86
2022/05/16 08:50:54;;;;;;;7.65;5.05;;;23.40;99.90;;;;;;5036191;28;20045;-86
2022/05/16 08:53:45;;;;;;;14.02;5.70;;;23.40;99.90;;;;;;5039122;28;20034;-87
2022/05/16 08:56:17;;;;;;;8.32;4.53;;;23.30;99.90;;;;;;5039862;28;20554;-89
2022/05/16 08:59:07;;;;;;;14.50;4.75;;;23.30;99.90;;;;;;5039034;28;20499;-89
2022/05/16 09:01:54;;;;;;;11.65;4.97;;;23.40;99.90;;;;;;5038301;28;20032;-87
2022/05/16 09:04:29;;;;;;;9.88;4.60;;;23.50;99.90;;;;;;5034448;28;20492;-85
2022/05/16 09:07:18;;;;;;;6.85;4.32;;;23.40;99.90;;;;;;5040375;28;20075;-84
2022/05/16 09:09:52;;;;;;;7.72;4.40;;;23.40;99.90;;;;;;5043706;28;20530;-84
2022/05/16 09:12:21;;;;;;;7.10;4.13;;;23.40;99.90;;;;;;5014035;28;20033;-85
2022/05/16 09:15:14;;;;;;;6.78;3.63;;;23.50;99.90;;;;;;5036774;28;20475;-85
2022/05/16 09:17:49;;;;;;;8.00;3.95;;;23.60;99.90;;;;;;5038698;28;20044;-85
2022/05/16 09:20:20;;;;;;;5.60;3.75;;;23.60;99.90;;;;;;5017709;28;20373;-86
2022/05/16 09:23:05;;;;;;;12.03;4.30;;;23.70;99.90;;;;;;5019710;28;20039;-85
2022/05/16 09:25:57;;;;;;;11.02;4.38;;;23.80;99.90;;;;;;5042003;28;20056;-85
2022/05/16 09:28:36;;;;;;;12.10;3.92;;;23.80;99.90;;;;;;5009464;28;20041;-86
2022/05/16 09:31:20;;;;;;;4.68;3.05;;;23.90;99.90;;;;;;5041452;28;20037;-84
2022/05/16 09:33:50;;;;;;;8.60;3.60;;;24.10;99.90;;;;;;5035873;28;20029;-86
2022/05/16 09:36:22;;;;;;;5.63;3.35;;;24.10;99.90;;;;;;5038872;28;20041;-88
2022/05/16 09:38:48;;;;;;;;;;;24.20;99.90;;;;;;5024980;28;20040;-86
2022/05/16 09:41:35;;;;;;;8.45;4.15;;;24.00;99.90;;;;;;5022742;28;20363;-87
2022/05/16 09:44:22;;;;;;;7.53;4.50;;;24.00;99.90;;;;;;5010691;28;20033;-86
2022/05/16 09:46:48;;;;;;;9.93;4.40;;;24.00;99.90;;;;;;5039236;28;20028;-86
2022/05/16 09:49:23;;;;;;;5.25;4.75;;;24.00;99.90;;;;;;5035563;28;20523;-85
2022/05/16 09:51:57;;;;;;;5.97;4.68;;;23.90;99.90;;;;;;5036617;28;20110;-87
2022/05/16 09:54:32;;;;;;;7.32;5.10;;;23.70;99.90;;;;;;5033883;28;20033;-86
2022/05/16 09:57:08;;;;;;;7.90;4.50;;;23.70;99.90;;;;;;5042971;28;20485;-87
2022/05/16 09:59:40;;;;;;;6.63;4.78;;;23.70;99.90;;;;;;5038117;28;20495;-86
2022/05/16 10:02:14;;;;;;;6.22;4.03;;;23.60;99.90;;;;;;5034483;28;20045;-86
2022/05/16 10:04:45;;;;;;;6.45;4.40;;;23.70;99.90;;;;;;5034576;28;20028;-87
2022/05/16 10:07:14;;;;;;;8.45;4.88;;;23.70;99.90;;;;;;5019652;28;20274;-89
2022/05/16 10:09:52;;;;;;;5.75;4.95;;;24.00;99.90;;;;;;5042301;28;20084;-86
2022/05/16 10:12:20;;;;;;;10.32;5.10;;;23.90;99.90;;;;;;5039973;28;20395;-87
2022/05/16 10:14:46;;;;;;;8.30;4.40;;;23.90;99.90;;;;;;5034712;28;20088;-86
2022/05/16 10:17:20;;;;;;;4.70;4.22;;;23.90;99.90;;;;;;5023126;28;20041;-86
2022/05/16 10:19:47;;;;;;;8.48;4.45;;;23.90;99.90;;;;;;5022055;28;20036;-86
2022/05/16 10:22:19;;;;;;;5.18;4.50;;;24.00;99.90;;;;;;5041310;28;20029;-86
2022/05/16 10:24:52;;;;;;;8.77;4.53;;;24.00;99.90;;;;;;5017547;28;20057;-87
2022/05/16 10:27:28;;;;;;;6.95;4.07;;;23.80;99.90;;;;;;5043264;28;20082;-86
2022/05/16 10:30:00;;;;;;;6.10;3.80;;;23.70;99.90;;;;;;5045797;28;20068;-87
2022/05/16 10:35:24;;;;;;;6.10;3.90;;;23.80;99.90;;;;;;5052327;28;20045;-84
2022/05/16 10:37:53;;;;;;;4.30;3.70;;;23.60;99.90;;;;;;5029543;28;20043;-86
2022/05/16 10:40:47;;;;;;;5.18;3.40;;;23.70;99.90;;;;;;5029751;28;20044;-90
2022/05/16 10:43:46;;;;;;;3.70;3.40;;;23.60;99.90;;;;;;5036370;28;20657;-86
2022/05/16 10:46:18;;;;;;;6.88;3.33;;;23.50;99.90;;;;;;5040323;28;20030;-88
2022/05/16 10:48:50;;;;;;;2.92;2.67;;;23.80;99.90;;;;;;5039056;28;20073;-86
2022/05/16 10:51:23;;;;;;;3.03;2.63;;;24.10;99.90;;;;;;5021672;28;20502;-87
2022/05/16 10:54:05;;;;;;;3.03;2.63;;;24.20;99.90;;;;;;5023270;28;20018;-87
2022/05/16 10:57:13;;;;;;;5.18;2.40;;;24.30;99.90;;;;;;5045600;28;20501;-89
2022/05/16 10:59:54;;;;;;;2.70;2.50;;;24.40;99.90;;;;;;4993831;28;20083;-87
2022/05/16 11:02:38;;;;;;;5.97;2.65;;;24.20;99.90;;;;;;5021066;28;20361;-86
2022/05/16 11:05:11;;;;;;;5.78;2.22;;;24.00;99.90;;;;;;5037917;28;20032;-89
2022/05/16 11:07:42;;;;;;;4.18;2.13;;;24.00;99.90;;;;;;5039316;28;20036;-89
2022/05/16 11:10:43;;;;;;;3.17;2.40;;;24.10;99.90;;;;;;5031390;28;20024;-86
2022/05/16 11:13:35;;;;;;;2.72;2.42;;;24.10;99.90;;;;;;5037818;28;20411;-87
2022/05/16 11:16:13;;;;;;;3.50;2.30;;;24.30;99.90;;;;;;5008934;28;20041;-87
2022/05/16 11:19:07;;;;;;;3.67;2.35;;;24.10;99.90;;;;;;5043504;28;20306;-87
2022/05/16 11:21:59;;;;;;;3.38;2.33;;;24.10;99.90;;;;;;5040840;28;20057;-88
2022/05/16 11:24:42;;;;;;;2.00;1.83;;;24.30;99.90;;;;;;5038528;28;20127;-88
2022/05/16 11:27:11;;;;;;;;;;;24.60;99.90;;;;;;5043452;28;20025;-89
2022/05/16 11:29:58;;;;;;;3.15;2.47;;;24.60;99.90;;;;;;5019404;28;19936;-87
2022/05/16 11:32:49;;;;;;;4.38;2.92;;;25.00;99.90;;;;;;5022636;28;20094;-90
2022/05/16 11:35:24;;;;;;;7.68;2.60;;;25.10;99.90;;;;;;5024777;28;20108;-88
2022/05/16 11:38:24;;;;;;;4.88;2.80;;;25.20;99.90;;;;;;5042628;28;20037;-87
2022/05/16 11:41:14;;;;;;;4.95;2.78;;;25.50;99.90;;;;;;5038598;28;20025;-88
2022/05/16 11:43:48;;;;;;;6.15;2.65;;;25.30;99.90;;;;;;5038299;28;20109;-87
2022/05/16 11:46:26;;;;;;;5.70;2.33;;;25.40;99.90;;;;;;5041435;28;20040;-87
2022/05/16 11:49:02;;;;;;;4.07;2.78;;;25.50;99.90;;;;;;5042631;28;20045;-86
2022/05/16 11:51:27;;;;;;;8.90;2.35;;;25.50;99.90;;;;;;5037608;28;20028;-87
2022/05/16 11:53:58;;;;;;;5.38;2.30;;;25.20;99.90;;;;;;5036185;28;20017;-85
2022/05/16 12:02:35;;;;;;;8.88;2.45;;;27.10;99.90;;;;;;5039386;28;20460;-86
2022/05/16 12:05:00;;;;;;;3.63;2.25;;;28.80;99.90;;;;;;5044056;28;20075;-86
2022/05/16 12:07:38;;;;;;;2.30;2.08;;;30.70;99.90;;;;;;5040655;28;20480;-86
2022/05/16 12:10:10;;;;;;;7.72;2.00;;;32.50;99.90;;;;;;5043601;28;20029;-86
2022/05/16 12:12:40;;;;;;;2.80;2.10;;;33.00;99.90;;;;;;5041233;28;20032;-85
2022/05/16 12:15:21;;;;;;;2.85;2.08;;;32.80;99.90;;;;;;5044725;28;20029;-86
2022/05/16 12:17:50;;;;;;;4.35;2.22;;;32.30;99.90;;;;;;5019601;28;20060;-86
2022/05/16 12:20:16;;;;;;;6.22;2.00;;;32.00;99.90;;;;;;5027166;28;20616;-85
2022/05/16 12:22:46;;;;;;;3.17;2.33;;;32.30;99.90;;;;;;5039241;28;20035;-85
2022/05/16 12:25:24;;;;;;;4.15;2.22;;;32.70;99.90;;;;;;5020432;28;20456;-88
2022/05/16 12:28:13;;;;;;;6.50;2.53;;;32.70;99.50;;;;;;5023218;28;20061;-85
2022/05/16 12:30:43;;;;;;;9.38;2.88;;;32.30;99.70;;;;;;5023275;28;20430;-87
2022/05/16 12:33:32;;;;;;;4.82;2.58;;;34.10;99.30;;;;;;5021470;28;20025;-91
2022/05/16 12:35:58;;;;;;;4.85;2.70;;;35.20;97.70;;;;;;5006973;28;20110;-84
2022/05/16 12:38:27;;;;;;;6.20;3.03;;;35.10;96.80;;;;;;5038079;28;20033;-87
2022/05/16 12:41:03;;;;;;;4.60;2.50;;;34.40;97.80;;;;;;5040042;28;20048;-89
2022/05/16 12:44:00;;;;;;;7.25;3.28;;;34.50;97.10;;;;;;5041808;28;20026;-88
2022/05/16 12:46:51;;;;;;;3.08;2.60;;;35.50;96.60;;;;;;5047849;28;20022;-88
2022/05/16 12:49:55;;;;;;;2.80;2.60;;;36.40;95.20;;;;;;5037872;28;20197;-88
2022/05/16 12:52:35;;;;;;;4.88;2.55;;;36.50;94.20;;;;;;4985894;28;20033;-86
2022/05/16 12:55:13;;;;;;;5.07;2.90;;;36.40;94.80;;;;;;5021076;28;20029;-82
2022/05/16 12:57:47;;;;;;;5.07;2.50;;;37.60;93.30;;;;;;5036751;28;20047;-85
2022/05/16 13:00:30;;;;;;;6.22;2.72;;;38.70;91.30;;;;;;5042581;28;20096;-86
2022/05/16 13:03:22;;;;;;;10.45;3.13;;;37.90;91.50;;;;;;5043582;28;20430;-88
2022/05/16 13:05:59;;;;;;;3.70;2.50;;;37.20;91.60;;;;;;5032368;28;20025;-85
2022/05/16 13:08:49;;;;;;;5.93;2.78;;;37.60;89.80;;;;;;5041404;28;20025;-86
2022/05/16 13:11:43;;;;;;;5.95;2.75;;;37.80;90.50;;;;;;5022990;28;20033;-85
2022/05/16 13:14:28;;;;;;;4.28;2.95;;;37.20;90.00;;;;;;5037376;28;20037;-87
2022/05/16 13:16:57;;;;;;;8.73;3.20;;;37.40;90.30;;;;;;5037412;28;20041;-86
2022/05/16 13:19:32;;;;;;;4.28;2.58;;;37.80;89.70;;;;;;5043935;28;20479;-86
2022/05/16 13:22:17;;;;;;;5.13;3.00;;;38.00;88.80;;;;;;5023790;28;20502;-86
2022/05/16 13:24:42;;;;;;;4.22;2.95;;;37.50;88.60;;;;;;5038035;28;20037;-87
2022/05/16 13:30:03;;;;;;;4.78;2.70;;;37.40;87.60;;;;;;5044018;28;20079;-82
2022/05/16 13:32:30;;;;;;;4.45;2.85;;;37.10;88.80;;;;;;5040065;28;20021;-83
2022/05/16 13:35:02;;;;;;;4.65;3.35;;;37.30;90.00;;;;;;5043763;28;20147;-82
2022/05/16 13:37:52;;;;;;;10.70;3.33;;;38.70;87.10;;;;;;5040603;28;20397;-89
2022/05/16 13:40:25;;;;;;;6.00;3.17;;;38.10;86.00;;;;;;5040750;28;20330;-88
2022/05/16 13:42:54;;;;;;;5.70;2.50;;;39.90;82.80;;;;;;5022129;28;20029;-90